createdAt,value
2018-08-17T00:37:30.930Z,32.9
2018-08-17T00:38:20.662Z,33
2018-08-17T00:39:11.013Z,32.9
2018-08-17T00:40:00.221Z,32.9
2018-08-17T00:40:50.342Z,32.9
2018-08-17T00:41:41.248Z,32.9
2018-08-17T00:42:31.047Z,32.9
2018-08-17T00:43:20.805Z,32.9
2018-08-17T00:44:11.351Z,32.9
2018-08-17T00:45:01.693Z,32.9
2018-08-17T00:45:51.743Z,32.9
2018-08-17T00:46:41.527Z,32.9
2018-08-17T00:47:31.582Z,32.9
2018-08-17T00:48:20.836Z,32.9
2018-08-17T00:49:11.682Z,32.9
2018-08-17T00:50:01.484Z,32.9
2018-08-17T00:50:51.568Z,32.9
2018-08-17T00:51:41.925Z,32.9
2018-08-17T00:52:32.274Z,32.9
2018-08-17T00:53:22.441Z,32.9
2018-08-17T00:54:12.116Z,32.9
2018-08-17T00:55:02.199Z,32.9
2018-08-17T00:55:52.311Z,32.9
2018-08-17T00:56:42.580Z,32.9
2018-08-17T00:57:32.962Z,32.9
2018-08-17T00:58:22.769Z,32.9
2018-08-17T00:59:12.266Z,32.9
2018-08-17T01:00:02.275Z,32.9
2018-08-17T01:00:52.895Z,32.9
2018-08-17T01:01:42.949Z,32.9
2018-08-17T01:02:32.482Z,32.9
2018-08-17T01:03:23.137Z,32.9
2018-08-17T01:04:13.462Z,32.9
2018-08-17T01:05:03.212Z,32.8
2018-08-17T01:05:53.209Z,32.8
2018-08-17T01:06:43.079Z,32.9
2018-08-17T01:07:33.437Z,32.8
2018-08-17T01:08:23.451Z,32.8
2018-08-17T01:09:13.785Z,32.8
2018-08-17T01:10:03.575Z,32.8
2018-08-17T01:10:53.085Z,32.8
2018-08-17T01:11:43.536Z,32.8
2018-08-17T01:12:33.225Z,32.8
2018-08-17T01:13:23.854Z,32.8
2018-08-17T01:14:14.196Z,32.8
2018-08-17T01:15:03.972Z,32.8
2018-08-17T01:15:53.503Z,32.8
2018-08-17T01:16:43.802Z,32.8
2018-08-17T01:17:34.424Z,32.8
2018-08-17T01:18:23.720Z,32.8
2018-08-17T01:19:14.542Z,32.8
2018-08-17T01:20:04.623Z,32.8
2018-08-17T01:20:54.429Z,32.8
2018-08-17T01:21:44.187Z,32.8
2018-08-17T01:22:34.869Z,32.8
2018-08-17T01:23:24.630Z,32.8
2018-08-17T01:24:14.756Z,32.8
2018-08-17T01:25:05.075Z,32.8
2018-08-17T01:25:55.113Z,32.8
2018-08-17T01:26:44.390Z,32.8
2018-08-17T01:27:34.951Z,32.8
2018-08-17T01:28:25.052Z,32.8
2018-08-17T01:29:15.160Z,32.8
2018-08-17T01:30:05.141Z,32.8
2018-08-17T01:30:55.271Z,32.8
2018-08-17T01:31:45.264Z,32.7
2018-08-17T01:32:34.537Z,32.8
2018-08-17T01:33:24.872Z,32.7
2018-08-17T01:34:14.981Z,32.8
2018-08-17T01:35:04.707Z,32.7
2018-08-17T01:35:54.789Z,32.7
2018-08-17T01:36:45.395Z,32.7
2018-08-17T01:37:35.464Z,32.7
2018-08-17T01:38:25.852Z,32.7
2018-08-17T01:39:15.024Z,32.7
2018-08-17T01:40:05.883Z,32.7
2018-08-17T01:40:55.729Z,32.7
2018-08-17T01:41:46.314Z,32.7
2018-08-17T01:42:36.106Z,32.7
2018-08-17T01:43:26.489Z,32.7
2018-08-17T01:44:15.688Z,32.7
2018-08-17T01:45:05.892Z,32.7
2018-08-17T01:45:56.377Z,32.7
2018-08-17T01:46:46.196Z,32.7
2018-08-17T01:47:36.208Z,32.7
2018-08-17T01:48:26.305Z,32.6
2018-08-17T01:49:16.624Z,32.7
2018-08-17T01:50:06.685Z,32.7
2018-08-17T01:50:56.511Z,32.7
2018-08-17T01:51:46.859Z,32.6
2018-08-17T01:52:36.920Z,32.7
2018-08-17T01:53:26.435Z,32.6
2018-08-17T01:54:17.286Z,32.6
2018-08-17T01:55:07.124Z,32.6
2018-08-17T01:55:57.483Z,32.6
2018-08-17T01:56:46.397Z,32.6
2018-08-17T01:57:36.736Z,32.6
2018-08-17T01:58:26.600Z,32.6
2018-08-17T01:59:17.489Z,32.6
2018-08-17T02:00:07.222Z,32.6
2018-08-17T02:00:56.705Z,32.6
2018-08-17T02:01:47.928Z,32.6
2018-08-17T02:02:37.112Z,32.6
2018-08-17T02:03:27.209Z,32.6
2018-08-17T02:04:17.900Z,32.6
2018-08-17T02:05:07.872Z,32.6
2018-08-17T02:05:57.656Z,32.6
2018-08-17T02:06:47.735Z,32.6
2018-08-17T02:07:37.554Z,32.6
2018-08-17T02:08:27.560Z,32.6
2018-08-17T02:09:17.446Z,32.6
2018-08-17T02:10:08.255Z,32.6
2018-08-17T02:10:57.779Z,32.6
2018-08-17T02:11:48.415Z,32.6
2018-08-17T02:12:38.250Z,32.6
2018-08-17T02:13:28.255Z,32.6
2018-08-17T02:14:18.040Z,32.6
2018-08-17T02:15:08.102Z,32.6
2018-08-17T02:15:58.704Z,32.6
2018-08-17T02:16:47.950Z,32.6
2018-08-17T02:17:38.819Z,32.6
2018-08-17T02:18:28.334Z,32.6
2018-08-17T02:19:18.678Z,32.5
2018-08-17T02:20:08.794Z,32.6
2018-08-17T02:20:58.539Z,32.5
2018-08-17T02:21:48.868Z,32.5
2018-08-17T02:22:39.183Z,32.5
2018-08-17T02:23:29.002Z,32.5
2018-08-17T02:24:19.349Z,32.5
2018-08-17T02:25:08.596Z,32.5
2018-08-17T02:25:59.483Z,32.5
2018-08-17T02:26:49.820Z,32.5
2018-08-17T02:27:39.906Z,32.5
2018-08-17T02:28:29.670Z,32.5
2018-08-17T02:29:18.929Z,32.5
2018-08-17T02:30:09.258Z,32.5
2018-08-17T02:30:59.884Z,32.5
2018-08-17T02:31:49.642Z,32.5
2018-08-17T02:32:39.726Z,32.5
2018-08-17T02:33:29.280Z,32.5
2018-08-17T02:34:19.928Z,32.4
2018-08-17T02:35:10.498Z,32.4
2018-08-17T02:36:00.298Z,32.4
2018-08-17T02:36:50.658Z,32.4
2018-08-17T02:37:39.892Z,32.4
2018-08-17T02:38:30.815Z,32.4
2018-08-17T02:39:20.912Z,32.4
2018-08-17T02:40:10.329Z,32.4
2018-08-17T02:41:00.478Z,32.4
2018-08-17T02:41:50.455Z,32.4
2018-08-17T02:42:40.516Z,32.4
2018-08-17T02:43:31.191Z,32.4
2018-08-17T02:44:20.092Z,32.4
2018-08-17T02:45:10.979Z,32.4
2018-08-17T02:46:00.832Z,32.4
2018-08-17T02:46:51.419Z,32.4
2018-08-17T02:47:40.926Z,32.4
2018-08-17T02:48:30.989Z,32.4
2018-08-17T02:49:21.664Z,32.4
2018-08-17T02:50:11.114Z,32.4
2018-08-17T02:51:01.427Z,32.4
2018-08-17T02:51:51.213Z,32.4
2018-08-17T02:52:41.032Z,32.4
2018-08-17T02:53:31.070Z,32.4
2018-08-17T02:54:21.675Z,32.4
2018-08-17T02:55:11.584Z,32.4
2018-08-17T02:56:01.848Z,32.4
2018-08-17T02:56:51.624Z,32.4
2018-08-17T02:57:41.119Z,32.4
2018-08-17T02:58:32.054Z,32.4
2018-08-17T02:59:22.288Z,32.4
2018-08-17T03:00:11.367Z,32.4
2018-08-17T03:01:02.282Z,32.4
2018-08-17T03:01:52.292Z,32.4
2018-08-17T03:02:41.779Z,32.4
2018-08-17T03:03:31.859Z,32.4
2018-08-17T03:04:22.508Z,32.4
2018-08-17T03:05:12.280Z,32.4
2018-08-17T03:06:02.074Z,32.4
2018-08-17T03:06:52.138Z,32.4
2018-08-17T03:07:41.889Z,32.3
2018-08-17T03:08:32.792Z,32.4
2018-08-17T03:09:21.995Z,32.3
2018-08-17T03:10:12.964Z,32.3
2018-08-17T03:11:03.075Z,32.3
2018-08-17T03:11:53.451Z,32.3
2018-08-17T03:12:42.532Z,32.3
2018-08-17T03:13:32.976Z,32.3
2018-08-17T03:14:23.299Z,32.3
2018-08-17T03:15:13.633Z,32.3
2018-08-17T03:16:03.147Z,32.3
2018-08-17T03:16:53.233Z,32.3
2018-08-17T03:17:43.832Z,32.3
2018-08-17T03:18:33.342Z,32.3
2018-08-17T03:19:23.421Z,32.3
2018-08-17T03:20:14.047Z,32.3
2018-08-17T03:21:03.809Z,32.3
2018-08-17T03:21:53.199Z,32.3
2018-08-17T03:22:43.184Z,32.3
2018-08-17T03:23:34.261Z,32.3
2018-08-17T03:24:23.484Z,32.3
2018-08-17T03:25:28.879Z,32.3
2018-08-17T03:26:04.226Z,32.3
2018-08-17T03:26:53.924Z,32.3
2018-08-17T03:27:44.279Z,32.3
2018-08-17T03:28:34.304Z,32.3
2018-08-17T03:29:24.620Z,32.3
2018-08-17T03:30:13.350Z,32.3
2018-08-17T03:31:04.683Z,32.3
2018-08-17T03:31:54.855Z,32.3
2018-08-17T03:32:44.356Z,32.3
2018-08-17T03:33:34.951Z,32.3
2018-08-17T03:34:24.766Z,32.3
2018-08-17T03:35:14.548Z,32.3
2018-08-17T03:36:04.946Z,32.3
2018-08-17T03:36:55.231Z,32.3
2018-08-17T03:37:45.296Z,32.2
2018-08-17T03:38:34.802Z,32.3
2018-08-17T03:39:24.869Z,32.3
2018-08-17T03:40:15.222Z,32.3
2018-08-17T03:41:05.295Z,32.3
2018-08-17T03:41:55.413Z,32.2
2018-08-17T03:42:45.449Z,32.2
2018-08-17T03:43:35.756Z,32.2
2018-08-17T03:44:25.319Z,32.2
2018-08-17T03:45:15.111Z,32.2
2018-08-17T03:46:05.717Z,32.2
2018-08-17T03:46:55.782Z,32.3
2018-08-17T03:47:45.869Z,32.2
2018-08-17T03:48:36.189Z,32.2
2018-08-17T03:49:25.468Z,32.2
2018-08-17T03:50:16.028Z,32.2
2018-08-17T03:51:06.391Z,32.2
2018-08-17T03:51:56.440Z,32.2
2018-08-17T03:52:45.955Z,32.2
2018-08-17T03:53:36.324Z,32.2
2018-08-17T03:54:26.662Z,32.2
2018-08-17T03:55:16.174Z,32.2
2018-08-17T03:56:06.774Z,32.2
2018-08-17T03:56:56.877Z,32.2
2018-08-17T03:57:45.808Z,32.2
2018-08-17T03:58:36.127Z,32.1
2018-08-17T03:59:26.473Z,32.2
2018-08-17T04:00:16.799Z,32.2
2018-08-17T04:01:06.879Z,32.2
2018-08-17T04:01:57.008Z,32.2
2018-08-17T04:02:46.675Z,32.2
2018-08-17T04:03:36.472Z,32.1
2018-08-17T04:04:26.813Z,32.2
2018-08-17T04:05:17.410Z,32.1
2018-08-17T04:06:07.526Z,32.1
2018-08-17T04:06:57.005Z,32.1
2018-08-17T04:07:47.104Z,32.1
2018-08-17T04:08:37.416Z,32.1
2018-08-17T04:09:27.231Z,32.1
2018-08-17T04:10:17.095Z,32.1
2018-08-17T04:11:06.846Z,32.1
2018-08-17T04:11:56.643Z,32.1
2018-08-17T04:12:46.860Z,32.1
2018-08-17T04:13:37.348Z,32.1
2018-08-17T04:14:27.457Z,32.1
2018-08-17T04:15:17.453Z,32.1
2018-08-17T04:16:07.809Z,32.1
2018-08-17T04:16:57.840Z,32.1
2018-08-17T04:17:47.946Z,32.1
2018-08-17T04:18:37.970Z,32.1
2018-08-17T04:19:27.999Z,32.1
2018-08-17T04:20:18.642Z,32.1
2018-08-17T04:21:08.427Z,32.1
2018-08-17T04:21:58.843Z,32.1
2018-08-17T04:22:48.588Z,32.1
2018-08-17T04:23:38.920Z,32.1
2018-08-17T04:24:28.462Z,32.1
2018-08-17T04:25:19.057Z,32.1
2018-08-17T04:26:08.818Z,32.1
2018-08-17T04:26:58.894Z,32.1
2018-08-17T04:27:48.203Z,32.1
2018-08-17T04:28:38.553Z,32.1
2018-08-17T04:29:28.867Z,32.1
2018-08-17T04:30:18.678Z,32.1
2018-08-17T04:31:08.718Z,32.1
2018-08-17T04:31:58.245Z,32.1
2018-08-17T04:32:49.162Z,32.1
2018-08-17T04:33:38.635Z,32.1
2018-08-17T04:34:28.481Z,32.1
2018-08-17T04:35:19.088Z,32
2018-08-17T04:36:09.894Z,32
2018-08-17T04:36:59.364Z,32
2018-08-17T04:37:49.149Z,32
2018-08-17T04:38:39.986Z,32
2018-08-17T04:39:30.121Z,32.1
2018-08-17T04:40:19.845Z,32
2018-08-17T04:41:09.762Z,32
2018-08-17T04:42:00.000Z,32
2018-08-17T04:42:49.563Z,32
2018-08-17T04:43:40.063Z,32
2018-08-17T04:44:29.175Z,32
2018-08-17T04:45:19.550Z,32
2018-08-17T04:46:09.836Z,32
2018-08-17T04:46:59.786Z,32
2018-08-17T04:47:50.178Z,32
2018-08-17T04:48:40.249Z,32
2018-08-17T05:07:24.721Z,31.9
2018-08-17T05:09:46.531Z,31.9
2018-08-17T05:10:21.536Z,31.9
2018-08-17T05:11:10.741Z,31.9
2018-08-17T05:12:01.857Z,31.9
2018-08-17T05:12:51.954Z,31.9
2018-08-17T05:13:42.291Z,31.9
2018-08-17T05:14:31.541Z,31.9
2018-08-17T05:15:21.891Z,31.9
2018-08-17T05:16:12.477Z,31.9
2018-08-17T05:17:02.312Z,31.9
2018-08-17T05:17:52.643Z,31.9
2018-08-17T05:18:42.133Z,31.9
2018-08-17T05:19:31.714Z,31.9
2018-08-17T05:20:21.801Z,31.9
2018-08-17T05:21:12.431Z,31.9
2018-08-17T05:22:02.732Z,31.9
2018-08-17T05:22:53.079Z,31.9
2018-08-17T05:23:42.839Z,31.9
2018-08-17T05:24:32.598Z,31.9
2018-08-17T05:25:22.459Z,31.9
2018-08-17T05:26:11.965Z,31.9
2018-08-17T05:27:03.378Z,31.9
2018-08-17T05:27:52.894Z,31.9
2018-08-17T05:28:42.934Z,31.9
2018-08-17T05:29:33.268Z,31.9
2018-08-17T05:30:22.842Z,31.9
2018-08-17T05:31:12.641Z,31.9
2018-08-17T05:32:03.192Z,31.9
2018-08-17T05:32:53.569Z,31.9
2018-08-17T05:33:43.605Z,31.9
2018-08-17T05:34:33.128Z,31.9
2018-08-17T05:35:23.927Z,31.9
2018-08-17T05:36:13.161Z,31.9
2018-08-17T05:37:03.091Z,32
2018-08-17T05:37:53.827Z,32
2018-08-17T05:38:43.933Z,32
2018-08-17T05:39:33.726Z,32.1
2018-08-17T05:40:23.789Z,32.1
2018-08-17T05:41:14.401Z,32.1
2018-08-17T05:42:04.172Z,32.1
2018-08-17T05:42:54.296Z,32.1
2018-08-17T05:43:44.583Z,32.1
2018-08-17T05:44:34.635Z,32.1
2018-08-17T05:45:24.162Z,32.1
2018-08-17T05:46:14.775Z,32.1
2018-08-17T05:47:04.564Z,32
2018-08-17T05:47:54.138Z,32
2018-08-17T05:48:44.108Z,32
2018-08-17T05:49:34.503Z,32
2018-08-17T05:50:24.098Z,32
2018-08-17T05:51:14.696Z,32
2018-08-17T05:52:04.235Z,32
2018-08-17T05:52:54.628Z,32
2018-08-17T05:53:44.971Z,31.9
2018-08-17T05:54:34.496Z,31.9
2018-08-17T05:55:24.764Z,31.9
2018-08-17T05:56:15.291Z,31.9
2018-08-17T05:57:05.699Z,31.9
2018-08-17T05:57:55.430Z,31.9
2018-08-17T05:58:44.759Z,31.9
2018-08-17T05:59:35.597Z,31.9
2018-08-17T06:00:25.641Z,31.9
2018-08-17T06:01:14.867Z,31.9
2018-08-17T06:02:05.792Z,31.9
2018-08-17T06:02:57.556Z,31.9
2018-08-17T06:03:45.597Z,31.9
2018-08-17T06:04:35.669Z,31.9
2018-08-17T06:05:25.827Z,31.9
2018-08-17T06:06:16.402Z,31.9
2018-08-17T06:07:06.159Z,31.9
2018-08-17T06:07:56.286Z,31.9
2018-08-17T06:08:46.006Z,31.9
2018-08-17T06:09:36.346Z,31.9
2018-08-17T06:10:26.661Z,31.9
2018-08-17T06:11:19.892Z,31.9
2018-08-17T06:12:06.502Z,31.8
2018-08-17T06:12:56.526Z,31.9
2018-08-17T06:13:46.896Z,31.8
2018-08-17T06:14:36.981Z,31.9
2018-08-17T06:15:26.993Z,31.8
2018-08-17T06:16:16.590Z,31.8
2018-08-17T06:17:06.877Z,31.8
2018-08-17T06:17:57.195Z,31.8
2018-08-17T06:18:46.707Z,31.8
2018-08-17T06:19:37.041Z,31.8
2018-08-17T06:20:27.122Z,31.8
2018-08-17T06:21:17.463Z,31.8
2018-08-17T06:22:07.528Z,31.8
2018-08-17T06:22:57.555Z,31.8
2018-08-17T06:23:47.094Z,31.8
2018-08-17T06:24:37.734Z,31.8
2018-08-17T06:25:27.806Z,31.8
2018-08-17T06:26:17.892Z,31.8
2018-08-17T06:27:07.360Z,31.8
2018-08-17T06:27:57.710Z,31.8
2018-08-17T06:28:48.086Z,31.8
2018-08-17T06:29:37.657Z,31.8
2018-08-17T06:30:27.674Z,31.8
2018-08-17T06:31:17.746Z,31.8
2018-08-17T06:32:08.082Z,31.8
2018-08-17T06:32:58.419Z,31.8
2018-08-17T06:33:47.927Z,31.8
2018-08-17T06:34:37.717Z,28.3
2018-08-17T06:35:27.219Z,29
2018-08-17T06:36:18.638Z,32.9
2018-08-17T06:37:08.778Z,33.5
2018-08-17T06:37:58.839Z,32
2018-08-17T06:38:48.358Z,30.3
2018-08-17T06:39:39.072Z,29.3
2018-08-17T06:40:28.776Z,29.4
2018-08-17T06:41:18.805Z,30.1
2018-08-17T06:42:09.018Z,30.9
2018-08-17T06:42:59.183Z,31.4
2018-08-17T06:43:49.005Z,31.8
2018-08-17T06:44:39.400Z,32
2018-08-17T06:45:29.379Z,32.1
2018-08-17T06:46:19.397Z,32.2
2018-08-17T06:47:09.177Z,32.4
2018-08-17T06:47:59.296Z,32.5
2018-08-17T06:48:49.308Z,32.8
2018-08-17T06:49:39.409Z,32.9
2018-08-17T06:50:29.551Z,33.1
2018-08-17T06:51:19.450Z,33.2
2018-08-17T06:52:09.983Z,33.5
2018-08-17T06:52:59.669Z,34
2018-08-17T06:53:49.999Z,34.6
2018-08-17T06:54:40.079Z,34.9
2018-08-17T06:55:29.617Z,35
2018-08-17T06:56:19.896Z,35.1
2018-08-17T06:57:10.943Z,34.9
2018-08-17T06:57:59.468Z,34.9
2018-08-17T06:58:50.100Z,34.9
2018-08-17T06:59:40.540Z,34.9
2018-08-17T07:00:29.795Z,34.9
2018-08-17T07:01:20.369Z,35.2
2018-08-17T07:02:10.400Z,35.4
2018-08-17T07:03:00.757Z,35.4
2018-08-17T07:03:49.967Z,35.3
2018-08-17T07:04:40.078Z,35.1
2018-08-17T07:05:30.396Z,35
2018-08-17T07:06:20.417Z,34.9
2018-08-17T07:07:10.242Z,34.9
2018-08-17T07:08:01.092Z,34.9
2018-08-17T07:08:53.263Z,34.9
2018-08-17T07:09:42.030Z,34.9
2018-08-17T07:10:30.736Z,34.9
2018-08-17T07:11:21.104Z,35
2018-08-17T07:12:10.873Z,35
2018-08-17T07:13:01.330Z,35.1
2018-08-17T07:13:51.338Z,35.1
2018-08-17T07:14:41.094Z,35.1
2018-08-17T07:15:31.443Z,35.2
2018-08-17T07:16:20.970Z,35.3
2018-08-17T07:17:11.618Z,35.3
2018-08-17T07:18:01.677Z,35.3
2018-08-17T07:18:52.003Z,35.4
2018-08-17T07:19:42.025Z,35.6
2018-08-17T07:20:31.852Z,35.9
2018-08-17T07:21:21.870Z,36.3
2018-08-17T07:22:12.196Z,36.4
2018-08-17T07:23:01.434Z,36.5
2018-08-17T07:23:52.337Z,36.5
2018-08-17T07:24:42.110Z,36.4
2018-08-17T07:25:31.749Z,36.4
2018-08-17T07:26:21.929Z,36.4
2018-08-17T07:27:12.566Z,36.4
2018-08-17T07:28:03.206Z,36.6
2018-08-17T07:28:52.400Z,36.9
2018-08-17T07:29:42.751Z,37.1
2018-08-17T07:30:32.315Z,37.1
2018-08-17T07:31:22.380Z,37.1
2018-08-17T07:32:12.655Z,37.2
2018-08-17T07:33:02.881Z,37.2
2018-08-17T07:33:53.119Z,37.3
2018-08-17T07:34:42.590Z,37.3
2018-08-17T07:35:32.742Z,37.3
2018-08-17T07:36:23.068Z,37.3
2018-08-17T07:37:12.813Z,37.3
2018-08-17T07:38:03.153Z,37.7
2018-08-17T07:38:52.352Z,38.4
2018-08-17T07:39:43.584Z,38.9
2018-08-17T07:40:33.663Z,39.7
2018-08-17T07:41:23.464Z,40.3
2018-08-17T07:42:13.634Z,40.8
2018-08-17T07:43:03.625Z,41.2
2018-08-17T07:43:53.683Z,41.7
2018-08-17T07:44:43.701Z,42
2018-08-17T07:45:34.050Z,42.4
2018-08-17T07:46:24.125Z,42.4
2018-08-17T07:47:14.294Z,42.7
2018-08-17T07:48:06.208Z,43
2018-08-17T07:48:53.747Z,43.5
2018-08-17T07:49:44.109Z,43.8
2018-08-17T07:50:33.919Z,44.1
2018-08-17T07:51:23.973Z,44.4
2018-08-17T07:52:14.620Z,44.7
2018-08-17T07:53:04.340Z,44.9
2018-08-17T07:53:54.137Z,45.1
2018-08-17T07:54:44.812Z,45.3
2018-08-17T07:55:34.557Z,45.6
2018-08-17T07:56:24.592Z,45.8
2018-08-17T07:57:14.642Z,46
2018-08-17T07:58:04.973Z,46.3
2018-08-17T07:58:55.179Z,46.4
2018-08-17T07:59:45.064Z,46.6
2018-08-17T08:00:34.620Z,46.8
2018-08-17T08:01:24.938Z,47
2018-08-17T08:02:15.290Z,47.3
2018-08-17T08:03:04.495Z,47.5
2018-08-17T08:03:54.854Z,47.7
2018-08-17T08:04:45.478Z,47.8
2018-08-17T08:05:35.346Z,48
2018-08-17T08:06:25.622Z,48.2
2018-08-17T08:07:15.683Z,48.3
2018-08-17T08:08:05.144Z,48.6
2018-08-17T08:08:55.516Z,48.8
2018-08-17T08:09:45.594Z,48.9
2018-08-17T08:10:36.395Z,49.1
2018-08-17T08:11:25.004Z,49.3
2018-08-17T08:12:16.117Z,49.4
2018-08-17T08:13:05.364Z,49.5
2018-08-17T08:13:55.915Z,49.5
2018-08-17T08:14:46.021Z,49.5
2018-08-17T08:15:36.073Z,49.4
2018-08-17T08:16:25.625Z,49.5
2018-08-17T08:17:16.313Z,49.5
2018-08-17T08:18:06.321Z,49.6
2018-08-17T08:18:56.370Z,49.8
2018-08-17T08:19:45.890Z,49.9
2018-08-17T08:20:37.233Z,50.1
2018-08-17T08:21:26.612Z,50.3
2018-08-17T08:22:16.622Z,50.4
2018-08-17T08:23:06.673Z,50.6
2018-08-17T08:23:56.568Z,50.8
2018-08-17T08:24:47.085Z,50.9
2018-08-17T08:25:36.323Z,51.1
2018-08-17T08:26:26.660Z,51.2
2018-08-17T08:27:16.720Z,51.4
2018-08-17T08:28:06.809Z,51.6
2018-08-17T08:28:57.171Z,51.7
2018-08-17T08:29:46.453Z,51.8
2018-08-17T08:31:27.058Z,52
2018-08-17T08:32:17.818Z,52.1
2018-08-17T08:33:07.465Z,52.3
2018-08-17T08:33:57.487Z,52.4
2018-08-17T08:34:47.559Z,52.6
2018-08-17T08:35:37.384Z,52.7
2018-08-17T08:36:27.943Z,52.8
2018-08-17T08:37:17.447Z,53
2018-08-17T08:38:07.804Z,53.1
2018-08-17T08:38:57.604Z,53.3
2018-08-17T08:39:48.237Z,53.4
2018-08-17T08:40:38.287Z,53.6
2018-08-17T08:41:27.830Z,53.7
2018-08-17T08:42:18.192Z,53.8
2018-08-17T08:43:08.459Z,53.9
2018-08-17T08:43:58.513Z,54.1
2018-08-17T08:44:48.578Z,54.2
2018-08-17T08:45:39.168Z,54.3
2018-08-17T08:46:28.202Z,54.5
2018-08-17T08:47:18.288Z,54.6
2018-08-17T08:48:08.878Z,54.7
2018-08-17T08:48:58.898Z,54.8
2018-08-17T08:49:48.984Z,54.9
2018-08-17T08:50:38.610Z,55.1
2018-08-17T08:51:29.176Z,55.3
2018-08-17T08:52:19.273Z,55.4
2018-08-17T08:53:09.342Z,55.5
2018-08-17T08:53:58.858Z,55.6
2018-08-17T08:54:48.886Z,55.8
2018-08-17T08:55:39.269Z,55.9
2018-08-17T08:56:29.376Z,56
2018-08-17T08:57:19.346Z,56.1
2018-08-17T08:58:09.130Z,56.2
2018-08-17T08:58:58.990Z,56.3
2018-08-17T08:59:49.858Z,56.4
2018-08-17T09:00:39.635Z,56.6
2018-08-17T09:01:29.669Z,56.7
2018-08-17T09:02:19.254Z,56.8
2018-08-17T09:03:10.087Z,56.9
2018-08-17T09:03:58.269Z,57.1
2018-08-17T09:21:20.605Z,59.7
2018-08-17T09:22:05.859Z,59.8
2018-08-17T09:22:55.397Z,59.9
2018-08-17T09:23:46.233Z,60.1
2018-08-17T09:24:36.306Z,60.1
2018-08-17T09:25:26.096Z,60.3
2018-08-17T09:26:16.442Z,60.4
2018-08-17T09:27:05.926Z,60.4
2018-08-17T09:27:56.600Z,60.6
2018-08-17T09:28:46.010Z,60.7
2018-08-17T09:29:36.415Z,60.8
2018-08-17T09:30:26.835Z,60.9
2018-08-17T09:31:16.590Z,61
2018-08-17T09:32:06.364Z,61.1
2018-08-17T09:32:56.793Z,61.2
2018-08-17T09:33:46.484Z,61.3
2018-08-17T09:34:36.606Z,61.4
2018-08-17T09:35:27.199Z,61.6
2018-08-17T09:36:17.106Z,61.7
2018-08-17T09:37:07.112Z,61.8
2018-08-17T09:37:57.412Z,61.9
2018-08-17T09:38:46.919Z,61.9
2018-08-17T09:39:36.972Z,62
2018-08-17T09:40:27.571Z,62.1
2018-08-17T09:41:16.610Z,62.2
2018-08-17T09:42:07.410Z,62.3
2018-08-17T09:42:57.476Z,62.3
2018-08-17T09:43:46.493Z,62.4
2018-08-17T09:44:37.059Z,62.5
2018-08-17T09:45:27.415Z,62.6
2018-08-17T09:46:17.771Z,62.8
2018-08-17T09:47:08.080Z,62.8
2018-08-17T09:47:57.677Z,62.9
2018-08-17T09:48:46.308Z,62.9
2018-08-17T09:49:37.043Z,63.1
2018-08-17T09:50:28.336Z,63.1
2018-08-17T09:51:17.636Z,63.2
2018-08-17T09:52:07.949Z,63.3
2018-08-17T09:52:58.546Z,63.4
2018-08-17T09:53:48.036Z,63.4
2018-08-17T09:54:37.900Z,63.5
2018-08-17T09:55:28.429Z,63.6
2018-08-17T09:56:17.913Z,63.6
2018-08-17T09:57:08.321Z,63.8
2018-08-17T09:57:58.468Z,63.8
2018-08-17T09:58:48.231Z,63.9
2018-08-17T09:59:38.196Z,63.9
2018-08-17T10:00:28.827Z,64
2018-08-17T10:01:17.895Z,63.9
2018-08-17T10:02:08.437Z,63.9
2018-08-17T10:02:59.092Z,63.9
2018-08-17T10:03:49.680Z,64.1
2018-08-17T10:04:39.503Z,64.3
2018-08-17T10:05:28.902Z,64.4
2018-08-17T10:06:19.341Z,64.6
2018-08-17T10:07:09.158Z,64.7
2018-08-17T10:07:59.475Z,64.7
2018-08-17T10:08:49.561Z,63.9
2018-08-17T10:09:39.347Z,62.5
2018-08-17T10:10:29.467Z,61.2
2018-08-17T10:11:19.776Z,60.2
2018-08-17T10:12:09.244Z,59.5
2018-08-17T10:12:59.476Z,59.3
2018-08-17T10:13:49.970Z,60.2
2018-08-17T10:14:39.691Z,61.6
2018-08-17T10:15:29.749Z,62.9
2018-08-17T10:16:20.124Z,63.6
2018-08-17T10:17:09.664Z,64
2018-08-17T10:18:00.065Z,64.2
2018-08-17T10:18:50.352Z,64.4
2018-08-17T10:19:39.826Z,64.7
2018-08-17T10:20:30.449Z,64.8
2018-08-17T10:21:25.414Z,64.3
2018-08-17T10:22:13.856Z,62.8
2018-08-17T10:23:00.401Z,61.7
2018-08-17T10:23:50.960Z,60.8
2018-08-17T10:24:39.926Z,60.1
2018-08-17T10:25:30.811Z,59.7
2018-08-17T10:26:20.607Z,59.4
2018-08-17T10:27:09.897Z,59.1
2018-08-17T10:28:01.336Z,58.8
2018-08-17T10:28:50.304Z,58.4
2018-08-17T10:29:41.112Z,58.1
2018-08-17T10:30:31.509Z,57.8
2018-08-17T10:31:21.029Z,57.5
2018-08-17T10:32:10.771Z,57.3
2018-08-17T10:33:01.194Z,57
2018-08-17T10:33:51.406Z,56.8
2018-08-17T10:34:41.274Z,56.6
2018-08-17T10:35:31.656Z,56.4
2018-08-17T10:36:21.964Z,56.3
2018-08-17T10:37:11.993Z,56.1
2018-08-17T10:38:01.356Z,56
2018-08-17T10:38:51.873Z,55.9
2018-08-17T10:39:41.421Z,55.8
2018-08-17T10:40:31.702Z,55.6
2018-08-17T10:41:21.511Z,55.5
2018-08-17T10:42:12.211Z,55.4
2018-08-17T10:43:02.511Z,55.3
2018-08-17T10:43:52.314Z,55.3
2018-08-17T10:44:41.621Z,55.1
2018-08-17T10:45:32.756Z,55.1
2018-08-17T10:46:22.782Z,55
2018-08-17T10:47:12.541Z,55
2018-08-17T10:48:02.608Z,55
2018-08-17T10:48:54.140Z,55
2018-08-17T10:49:41.731Z,55
2018-08-17T10:50:32.893Z,55.1
2018-08-17T10:51:22.899Z,55.6
2018-08-17T10:52:13.209Z,56.1
2018-08-17T10:53:02.437Z,56.3
2018-08-17T10:53:53.046Z,56.2
2018-08-17T10:54:43.161Z,55.8
2018-08-17T10:55:33.704Z,55.6
2018-08-17T10:56:23.381Z,55.9
2018-08-17T10:57:13.023Z,56.1
2018-08-17T10:58:03.659Z,56.2
2018-08-17T10:58:53.449Z,56.1
2018-08-17T10:59:43.734Z,55.9
2018-08-17T11:00:33.521Z,55.6
2018-08-17T11:01:23.859Z,55.3
2018-08-17T11:02:13.944Z,55.2
2018-08-17T11:03:04.048Z,55
2018-08-17T11:03:53.825Z,54.9
2018-08-17T11:04:44.164Z,54.8
2018-08-17T11:05:33.390Z,54.7
2018-08-17T11:06:24.028Z,54.6
2018-08-17T11:07:13.501Z,54.5
2018-08-17T11:08:04.395Z,54.4
2018-08-17T11:08:54.159Z,54.4
2018-08-17T11:09:43.744Z,54.3
2018-08-17T11:10:34.298Z,54.3
2018-08-17T11:11:24.500Z,54.3
2018-08-17T11:12:13.900Z,54.2
2018-08-17T11:13:04.484Z,54.2
2018-08-17T11:13:54.882Z,54.1
2018-08-17T11:14:44.119Z,54.3
2018-08-17T11:15:34.859Z,54.9
2018-08-17T11:16:25.081Z,55.8
2018-08-17T11:17:14.768Z,56.6
2018-08-17T11:18:05.338Z,57
2018-08-17T11:18:55.038Z,56.8
2018-08-17T11:19:45.068Z,56.3
2018-08-17T11:20:35.207Z,55.7
2018-08-17T11:21:25.237Z,55.4
2018-08-17T11:22:15.279Z,55.3
2018-08-17T11:23:05.529Z,55.4
2018-08-17T11:23:55.417Z,55.4
2018-08-17T11:24:45.744Z,55.4
2018-08-17T11:25:35.267Z,55.3
2018-08-17T11:26:25.654Z,55.1
2018-08-17T11:27:15.979Z,55
2018-08-17T11:28:04.938Z,55.1
2018-08-17T11:28:55.498Z,55.5
2018-08-17T11:29:46.154Z,55.8
2018-08-17T11:30:36.011Z,55.8
2018-08-17T11:31:25.461Z,55.6
2018-08-17T11:32:16.399Z,55.3
2018-08-17T11:33:05.875Z,54.9
2018-08-17T11:33:55.937Z,54.8
2018-08-17T11:34:46.567Z,54.7
2018-08-17T11:35:36.575Z,54.6
2018-08-17T11:36:26.608Z,54.6
2018-08-17T11:37:16.424Z,54.5
2018-08-17T11:38:05.949Z,54.6
2018-08-17T11:38:55.267Z,54.6
2018-08-17T11:39:45.534Z,54.6
2018-08-17T11:40:36.195Z,54.6
2018-08-17T11:41:26.041Z,54.7
2018-08-17T11:42:15.598Z,54.7
2018-08-17T11:43:05.825Z,54.6
2018-08-17T11:43:56.753Z,54.7
2018-08-17T11:44:46.114Z,54.7
2018-08-17T11:45:36.318Z,54.6
2018-08-17T11:46:26.242Z,54.4
2018-08-17T11:47:17.293Z,54.2
2018-08-17T11:48:06.465Z,53.9
2018-08-17T11:48:56.141Z,53.8
2018-08-17T11:49:46.939Z,53.6
2018-08-17T11:50:37.770Z,53.5
2018-08-17T11:51:27.815Z,53.4
2018-08-17T11:52:17.606Z,53.3
2018-08-17T11:53:07.459Z,53.2
2018-08-17T11:53:59.046Z,53.2
2018-08-17T11:54:47.887Z,53.1
2018-08-17T11:55:37.925Z,53.1
2018-08-17T11:56:27.700Z,53.3
2018-08-17T11:57:17.796Z,53.4
2018-08-17T11:58:07.809Z,53.4
2018-08-17T11:58:57.867Z,53.3
2018-08-17T11:59:48.276Z,53
2018-08-17T12:00:38.623Z,52.9
2018-08-17T12:01:28.084Z,52.8
2018-08-17T12:02:18.461Z,52.8
2018-08-17T12:03:08.245Z,52.9
2018-08-17T12:03:58.291Z,52.9
2018-08-17T12:04:48.916Z,52.8
2018-08-17T12:05:38.713Z,52.8
2018-08-17T12:06:28.818Z,52.8
2018-08-17T12:07:19.136Z,53.4
2018-08-17T12:08:10.096Z,54.5
2018-08-17T12:08:58.727Z,55.2
2018-08-17T12:09:49.360Z,55.1
2018-08-17T12:10:39.061Z,54.5
2018-08-17T12:11:29.107Z,53.9
2018-08-17T12:12:19.150Z,53.6
2018-08-17T12:13:08.679Z,53.4
2018-08-17T12:13:59.299Z,53.5
2018-08-17T12:14:49.371Z,53.6
2018-08-17T12:15:39.156Z,53.7
2018-08-17T12:16:29.315Z,53.9
2018-08-17T12:17:19.843Z,53.9
2018-08-17T12:18:09.603Z,53.7
2018-08-17T12:18:59.867Z,53.4
2018-08-17T12:19:49.996Z,53.1
2018-08-17T12:20:39.816Z,52.9
2018-08-17T12:21:29.878Z,52.8
2018-08-17T12:22:20.270Z,52.8
2018-08-17T12:23:10.024Z,52.8